Impacts TAF Board
For situational awareness. Not to be used for flight planning purposes.
IDs:

KPBI - Palm Beach Intl, FL, US

Issued at 2320 UTC 02 Jul 2022
Updated at 0514 UTC 03 Jul 2022
Potential Impact None Slight Moderate High
Time0453Z 03/06Z 03/07Z 03/08Z 03/09Z 03/10Z 03/11Z 03/12Z 03/13Z 03/14Z 03/15Z 03/16Z 03/17Z 03/18Z>>
Type OBS PRVL PRVL PRVL PRVL PRVL PRVL PRVL PRVL PRVL PRVL PRVL PRVL PRVL
VIS 10 >6 >6 >6 >6 >6 >6 >6 >6 >6 >6 >6 >6 >6
CIG -- -- -- -- -- -- -- -- -- -- -- -- -- --
Cover SCT SCT SCT SCT SCT SCT SCT SCT SCT SCT SCT SCT SCT SCT
FltCat VFR VFR VFR VFR VFR VFR VFR VFR VFR VFR VFR VFR VFR VFR
WX -- -- -- -- -- -- -- -- -- -- VCSH VCSH VCSH VCSH
WDir 130 110 110 110 110 110 110 110 110 110 120 120 120 120
WSpd 7 5 5 5 5 5 5 5 5 5 10 10 10 10
WGst -- -- -- -- -- -- -- -- -- -- -- -- -- --
WSHgt -- -- -- -- -- -- -- -- -- -- -- -- -- --
WSDir -- -- -- -- -- -- -- -- -- -- -- -- -- --
WSSpd -- -- -- -- -- -- -- -- -- -- -- -- -- --
Raw TAF
KPBI 022320Z 0300/0324 12010KT P6SM SCT035 SCT050
  FM030200 11005KT P6SM FEW025 SCT050
  FM031500 12010KT P6SM VCSH SCT025 SCT050


Raw METAR
KPBI 030453Z 13007KT 10SM SCT020 28/24 A3009 RMK AO2 SLP187 T02780239 403170250 $
KPBI 030353Z 14006KT 10SM FEW021 SCT250 28/24 A3009 RMK AO2 SLP189 T02830239 $
KPBI 030253Z 13007KT 10SM FEW024 SCT250 28/24 A3009 RMK AO2 SLP188 T02830239 53012 $

METAR Board
Radar Display
Forecast Discussion
For situational awareness. Not to be used for flight planning purposes.